Aérodrome :
LOGIN :

S'inscrire | Disclaimer

   EN    FR    IT 

 










Légende :    VFR   VFR Marginal   IFR   IFR Intensif   IFR Très Intensif
Visi : 
Plafond : 
>= 8 km
>= 3000ft
5 à 8 km
1000 à 3000 ft
1500m à 5 km
500 à 1000 ft
800 à 1500m
200 à 500 ft
< 800m
< 200 ft
Symboles :   Orages  Brouillard  Fortes neiges  Fortes précipitations  Vent > 20 kt
SIGMETs :   Divers  Orages  Givrage  Turbulence  Onde Orograph.  Cendres Volcan.







- Altitude de l'aérodrome : 74 ft
- Code IATA : EIN


EHEH - Eindhoven

DERNIER METAR :
  • 100801Z AUTO 26009KT 210V280 8000 DZ FEW006 FEW015CB SCT027 BKN038 05/03 Q1021 BLU 28008KT 9999 SCT030 SCT050 TEMPO FEW018CB BKN025

METARs EXPIRÉS :
  • 100755Z AUTO 27007KT 220V300 6000 -SHRA FEW006 SCT011 BKN015CB 05/03 Q1021 RERA GRN 28008KT 9999 SCT030 SCT050 TEMPO FEW018CB BKN025
  • 100740Z AUTO 30005KT 240V350 9999 -RA FEW015CB BKN021 OVC025 05/03 Q1021 WHT 28008KT 9999 SCT030 SCT050 TEMPO FEW018CB BKN025
  • 100725Z AUTO 27006KT 220V320 9999 FEW015CB SCT031 BKN042 05/03 Q1021 REDZ BLU 28008KT 9999 SCT030 SCT050 TEMPO FEW018CB BKN025
  • 100655Z AUTO 25007KT 220V290 9999 -UP FEW015CB SCT039 BKN049 04/03 Q1021 BLU 28008KT 9999 SCT030 SCT050 TEMPO FEW018CB BKN025
  • 100625Z AUTO 25009KT 230V290 9999 FEW015CB BKN049 OVC055 04/03 Q1020 REDZ BLU 28008KT 9999 SCT030 SCT050 TEMPO FEW018CB BKN025
  • 100614Z AUTO 27009KT 230V310 9999 -DZ FEW014 FEW015CB SCT034 BKN041 05/03 Q1020 BLU 28008KT 9999 SCT030 SCT050 TEMPO FEW018CB BKN025
  • 100558Z AUTO 28010KT 240V330 8000 -RA FEW015CB SCT027 BKN031 05/03 Q1020 BLU 28008KT 9999 SCT030 SCT050 TEMPO FEW018CB BKN025
  • 100555Z AUTO 28009KT 230V330 7000 +DZ FEW015CB BKN030 OVC035 05/03 Q1020 WHT 28008KT 9999 SCT030 SCT050 TEMPO FEW018CB BKN025
  • 100525Z AUTO 29007KT 240V350 9999 FEW015CB BKN036 BKN042 05/03 Q1020 BLU

TAF TAF EHEH
Valide du 10 à 06h jusqu'au 11 à 12h UTC


100419Z 1006/1112 27009KT 9999 SCT025
TEMPO 1000/1018 29012G22KT -SHRA SCT018CB BKN025
BECMG 1011/1013 31013KT
BECMG 1017/1019 27007KT
Pas de NOTAMs connus pour ce terrain.



MET'MAP, la Météo Aéronautique d'un coup d'oeil ! - Copyright ORBIFLY Décembre 2007 - Disclaimer

ORBIFLY MET'MAP TEAM :

Programmation & Développement : Alexandra Zaïnal
Conception & Développement : Baudouin d'Aumeries
Co-Programmation & Développement : Marc-Olivier Méhu
Soutien technique & logistique : Manuel Goepfert

Contact : metmap@orbifly.com




SOURCES & CREDITS :

   NOAA